Time;durP1;ratioP1;P1;durP2;ratioP2;P2;SDS_P1;SDS_P2;PMS_P1;PMS_P2;Temp;Humidity;BMP_temperature;BMP_pressure;BME280_temperature;BME280_humidity;BME280_pressure;Samples;Min_cycle;Max_cycle;Signal;HPM_P1;HPM_P2
2023/04/26 00:01:34;;;;;;;19.23;4.27;;;;;;;;;;5031456;28;20268;-81
2023/04/26 00:04:01;;;;;;;15.03;3.23;;;;;;;;;;5025202;28;20326;-83
2023/04/26 00:06:35;;;;;;;13.33;4.70;;;;;;;;;;5033189;28;20806;-83
2023/04/26 00:09:02;;;;;;;15.17;4.83;;;;;;;;;;5029528;28;20288;-80
2023/04/26 00:11:28;;;;;;;8.27;3.20;;;;;;;;;;5029745;28;20283;-81
2023/04/26 00:13:57;;;;;;;7.20;3.60;;;;;;;;;;5026181;28;20313;-84
2023/04/26 00:16:23;;;;;;;5.93;3.40;;;;;;;;;;5029395;28;20299;-81
2023/04/26 00:18:49;;;;;;;8.30;3.50;;;;;;;;;;5031826;28;20392;-82
2023/04/26 00:21:16;;;;;;;12.07;3.20;;;;;;;;;;5032292;28;20281;-79
2023/04/26 00:23:42;;;;;;;11.70;2.93;;;;;;;;;;5030614;28;20288;-79
2023/04/26 00:26:08;;;;;;;11.00;3.30;;;;;;;;;;5030786;28;20276;-81
2023/04/26 00:28:34;;;;;;;10.60;4.00;;;;;;;;;;5032021;28;20327;-82
2023/04/26 00:31:00;;;;;;;11.57;3.90;;;;;;;;;;5030340;28;20257;-80
2023/04/26 00:33:26;;;;;;;16.10;3.73;;;;;;;;;;5033331;28;20367;-82
2023/04/26 00:35:53;;;;;;;9.40;4.23;;;;;;;;;;5023320;28;20317;-82
2023/04/26 00:38:19;;;;;;;11.43;4.17;;;;;;;;;;5027134;28;20308;-79
2023/04/26 00:40:45;;;;;;;14.23;4.67;;;;;;;;;;5024475;28;20304;-82
2023/04/26 00:43:14;;;;;;;11.43;4.53;;;;;;;;;;5024836;28;20289;-81
2023/04/26 00:45:41;;;;;;;30.27;4.43;;;;;;;;;;5023326;28;20273;-82
2023/04/26 00:48:07;;;;;;;11.33;4.10;;;;;;;;;;5030546;28;20308;-81
2023/04/26 00:50:33;;;;;;;12.60;4.30;;;;;;;;;;5024045;28;20095;-81
2023/04/26 00:53:01;;;;;;;13.87;4.47;;;;;;;;;;5031223;28;20826;-84
2023/04/26 00:55:27;;;;;;;20.93;5.27;;;;;;;;;;5031158;28;20288;-81
2023/04/26 00:57:54;;;;;;;16.60;4.90;;;;;;;;;;5034071;28;20280;-81
2023/04/26 01:00:20;;;;;;;23.23;5.50;;;;;;;;;;5035735;28;20300;-82
2023/04/26 01:02:47;;;;;;;15.33;6.03;;;;;;;;;;5032976;28;20286;-82
2023/04/26 01:05:15;;;;;;;16.03;5.60;;;;;;;;;;5033640;28;20792;-81
2023/04/26 01:07:41;;;;;;;16.43;7.60;;;;;;;;;;5033666;28;20287;-83
2023/04/26 01:10:08;;;;;;;20.17;7.37;;;;;;;;;;5027245;28;20427;-85
2023/04/26 01:12:35;;;;;;;19.77;5.43;;;;;;;;;;5032438;28;20283;-82
2023/04/26 01:15:02;;;;;;;10.27;5.37;;;;;;;;;;5033209;28;20280;-81
2023/04/26 01:17:28;;;;;;;18.37;4.83;;;;;;;;;;5035943;28;20352;-83
2023/04/26 01:19:55;;;;;;;10.63;4.17;;;;;;;;;;5027337;28;20294;-84
2023/04/26 01:22:21;;;;;;;9.33;4.30;;;;;;;;;;5031598;28;20249;-82
2023/04/26 01:24:50;;;;;;;18.13;4.43;;;;;;;;;;5034477;28;20277;-83
2023/04/26 01:27:16;;;;;;;12.93;4.50;;;;;;;;;;5033334;28;20361;-81
2023/04/26 01:29:42;;;;;;;14.40;4.90;;;;;;;;;;5033124;28;20332;-82
2023/04/26 01:32:09;;;;;;;18.10;5.00;;;;;;;;;;5028384;28;20828;-81
2023/04/26 01:34:36;;;;;;;14.10;5.10;;;;;;;;;;5026126;28;20284;-82
2023/04/26 01:37:02;;;;;;;18.47;5.00;;;;;;;;;;5035496;28;20292;-81
2023/04/26 01:39:28;;;;;;;13.83;4.33;;;;;;;;;;5035446;28;20283;-83
2023/04/26 01:41:54;;;;;;;11.33;4.23;;;;;;;;;;5027034;28;20288;-84
2023/04/26 01:44:20;;;;;;;9.73;4.43;;;;;;;;;;5027204;28;20305;-82
2023/04/26 01:46:46;;;;;;;12.93;4.17;;;;;;;;;;5030065;28;20268;-82
2023/04/26 01:49:12;;;;;;;11.77;4.80;;;;;;;;;;5030113;28;20344;-83
2023/04/26 01:51:38;;;;;;;16.50;5.53;;;;;;;;;;5034494;28;20312;-82
2023/04/26 01:54:05;;;;;;;16.93;4.30;;;;;;;;;;5018826;28;20269;-82
2023/04/26 01:56:31;;;;;;;8.13;4.87;;;;;;;;;;5032406;28;20316;-81
2023/04/26 01:58:58;;;;;;;15.80;5.27;;;;;;;;;;5030448;28;20311;-81
2023/04/26 02:01:24;;;;;;;16.90;5.17;;;;;;;;;;5032021;28;20288;-85
2023/04/26 02:03:50;;;;;;;11.90;4.43;;;;;;;;;;5026039;28;20296;-83
2023/04/26 02:06:16;;;;;;;13.73;4.53;;;;;;;;;;5030621;28;20279;-79
2023/04/26 02:08:42;;;;;;;8.60;3.90;;;;;;;;;;5028510;28;20340;-82
2023/04/26 02:11:08;;;;;;;15.13;4.17;;;;;;;;;;5031901;28;20308;-81
2023/04/26 02:13:35;;;;;;;12.23;4.43;;;;;;;;;;5031111;28;20300;-81
2023/04/26 02:16:01;;;;;;;17.03;5.87;;;;;;;;;;5028713;28;20026;-81
2023/04/26 02:18:28;;;;;;;14.33;6.30;;;;;;;;;;5027818;28;20294;-82
2023/04/26 02:20:54;;;;;;;19.03;5.60;;;;;;;;;;5036974;28;20284;-84
2023/04/26 02:23:21;;;;;;;14.33;5.13;;;;;;;;;;5033103;28;20377;-80
2023/04/26 02:25:47;;;;;;;16.20;5.03;;;;;;;;;;5036508;28;20932;-81
2023/04/26 02:28:14;;;;;;;10.83;4.67;;;;;;;;;;5033190;28;20288;-83
2023/04/26 02:30:40;;;;;;;16.50;5.43;;;;;;;;;;5025824;28;20269;-81
2023/04/26 02:33:07;;;;;;;11.20;5.13;;;;;;;;;;5031917;28;20275;-83
2023/04/26 02:35:34;;;;;;;18.23;5.87;;;;;;;;;;5023610;28;20343;-81
2023/04/26 02:38:00;;;;;;;14.97;5.17;;;;;;;;;;5032441;28;20269;-81
2023/04/26 02:40:29;;;;;;;11.27;5.47;;;;;;;;;;5034181;28;20292;-78
2023/04/26 02:42:55;;;;;;;18.53;4.50;;;;;;;;;;5024658;28;20280;-86
2023/04/26 02:45:21;;;;;;;10.13;4.50;;;;;;;;;;5033671;28;20288;-81
2023/04/26 02:47:47;;;;;;;11.70;4.83;;;;;;;;;;5032472;28;20823;-82
2023/04/26 02:50:14;;;;;;;15.17;6.50;;;;;;;;;;5027882;28;20279;-82
2023/04/26 02:52:40;;;;;;;12.27;5.47;;;;;;;;;;5034213;28;20446;-81
2023/04/26 02:55:06;;;;;;;13.60;6.13;;;;;;;;;;5026355;28;20641;-80
2023/04/26 02:57:33;;;;;;;15.63;5.33;;;;;;;;;;5032347;28;20265;-82
2023/04/26 02:59:59;;;;;;;12.60;5.53;;;;;;;;;;5024811;28;20288;-81
2023/04/26 03:02:25;;;;;;;14.47;5.10;;;;;;;;;;5026108;28;20319;-81
2023/04/26 03:04:52;;;;;;;19.33;5.87;;;;;;;;;;5027027;28;20283;-81
2023/04/26 03:07:18;;;;;;;16.57;5.93;;;;;;;;;;5032681;28;20281;-83
2023/04/26 03:09:44;;;;;;;19.60;5.70;;;;;;;;;;5034461;28;20280;-84
2023/04/26 03:12:11;;;;;;;12.00;5.47;;;;;;;;;;5025664;28;20368;-81
2023/04/26 03:14:37;;;;;;;19.77;6.03;;;;;;;;;;5023559;28;20277;-82
2023/04/26 03:17:03;;;;;;;13.07;6.10;;;;;;;;;;5030800;28;20288;-80
2023/04/26 03:19:29;;;;;;;13.57;6.37;;;;;;;;;;5031466;28;20295;-85
2023/04/26 03:21:56;;;;;;;18.10;5.43;;;;;;;;;;5028995;28;20312;-81
2023/04/26 03:24:22;;;;;;;14.67;5.77;;;;;;;;;;5035031;28;20287;-80
2023/04/26 03:26:48;;;;;;;18.60;6.70;;;;;;;;;;5030630;28;20311;-83
2023/04/26 03:29:15;;;;;;;15.83;6.30;;;;;;;;;;5033522;28;20752;-81
2023/04/26 03:31:44;;;;;;;13.83;5.97;;;;;;;;;;5024186;28;20372;-84
2023/04/26 03:34:10;;;;;;;16.30;6.30;;;;;;;;;;5030765;28;20273;-78
2023/04/26 03:36:37;;;;;;;12.83;5.50;;;;;;;;;;5030668;28;20289;-83
2023/04/26 03:39:04;;;;;;;13.97;6.30;;;;;;;;;;5023812;28;20480;-82
2023/04/26 03:41:32;;;;;;;17.20;6.57;;;;;;;;;;5031126;28;20287;-84
2023/04/26 03:43:58;;;;;;;17.90;7.23;;;;;;;;;;5032454;28;20311;-82
2023/04/26 03:46:24;;;;;;;18.10;6.73;;;;;;;;;;5030848;28;20288;-80
2023/04/26 03:48:50;;;;;;;19.90;6.27;;;;;;;;;;5033610;28;20277;-80
2023/04/26 03:51:16;;;;;;;15.30;7.00;;;;;;;;;;5024615;28;20280;-84
2023/04/26 03:53:43;;;;;;;13.10;6.63;;;;;;;;;;5023674;28;20287;-81
2023/04/26 03:56:09;;;;;;;20.20;7.10;;;;;;;;;;5029488;28;20272;-83
2023/04/26 03:58:35;;;;;;;23.27;8.13;;;;;;;;;;5028511;28;21037;-81
2023/04/26 04:01:03;;;;;;;15.40;7.43;;;;;;;;;;5028004;28;20037;-81
2023/04/26 04:03:29;;;;;;;19.20;6.80;;;;;;;;;;5032642;28;20315;-82
2023/04/26 04:05:56;;;;;;;18.00;6.73;;;;;;;;;;5033482;28;20283;-83
2023/04/26 04:08:22;;;;;;;14.37;6.57;;;;;;;;;;5025070;28;20304;-82
2023/04/26 04:10:50;;;;;;;20.90;7.03;;;;;;;;;;5034223;28;20284;-80
2023/04/26 04:13:16;;;;;;;20.40;7.60;;;;;;;;;;5031444;28;20304;-79
2023/04/26 04:15:42;;;;;;;21.40;8.77;;;;;;;;;;5030549;28;20291;-82
2023/04/26 04:18:08;;;;;;;15.37;5.90;;;;;;;;;;5025335;28;20284;-81
2023/04/26 04:20:35;;;;;;;12.47;6.87;;;;;;;;;;5023558;28;20270;-79
2023/04/26 04:23:03;;;;;;;20.57;7.47;;;;;;;;;;5029583;28;20304;-81
2023/04/26 04:25:29;;;;;;;14.67;6.20;;;;;;;;;;5029232;28;20272;-83
2023/04/26 04:27:55;;;;;;;18.10;7.37;;;;;;;;;;5030438;28;20280;-81
2023/04/26 04:30:21;;;;;;;25.07;7.83;;;;;;;;;;5033337;28;20272;-81
2023/04/26 04:32:47;;;;;;;22.90;7.30;;;;;;;;;;5036325;28;20287;-82
2023/04/26 04:35:13;;;;;;;19.93;6.90;;;;;;;;;;5033398;28;20276;-79
2023/04/26 04:37:39;;;;;;;20.17;7.93;;;;;;;;;;5034167;28;20284;-82
2023/04/26 04:40:08;;;;;;;20.73;8.30;;;;;;;;;;5033974;28;20288;-83
2023/04/26 04:42:35;;;;;;;17.17;7.20;;;;;;;;;;5032501;28;20273;-80
2023/04/26 04:45:01;;;;;;;15.23;6.03;;;;;;;;;;5036995;28;20315;-79
2023/04/26 04:47:27;;;;;;;15.43;6.97;;;;;;;;;;5033084;28;20276;-80
2023/04/26 04:49:53;;;;;;;15.67;8.47;;;;;;;;;;5034760;28;20375;-82
2023/04/26 04:52:22;;;;;;;15.50;7.97;;;;;;;;;;5034571;28;20273;-79
2023/04/26 04:54:48;;;;;;;20.33;8.40;;;;;;;;;;5035260;28;20291;-84
2023/04/26 04:57:15;;;;;;;19.50;7.70;;;;;;;;;;5035391;28;20300;-79
2023/04/26 04:59:42;;;;;;;18.70;8.50;;;;;;;;;;5027922;28;20287;-80
2023/04/26 05:02:08;;;;;;;20.30;7.50;;;;;;;;;;5027940;28;20368;-79
2023/04/26 05:04:37;;;;;;;20.40;8.53;;;;;;;;;;5034939;28;20315;-81
2023/04/26 05:07:03;;;;;;;19.20;8.97;;;;;;;;;;5031958;28;20287;-81
2023/04/26 05:09:29;;;;;;;30.83;8.67;;;;;;;;;;5034289;28;20281;-82
2023/04/26 05:11:55;;;;;;;22.13;7.93;;;;;;;;;;5034074;28;20359;-81
2023/04/26 05:14:24;;;;;;;30.43;10.33;;;;;;;;;;5026413;28;20281;-81
2023/04/26 05:16:53;;;;;;;23.33;8.23;;;;;;;;;;5032484;28;20272;-79
2023/04/26 05:19:19;;;;;;;26.50;8.97;;;;;;;;;;5027512;28;20284;-81
2023/04/26 05:21:45;;;;;;;25.67;8.70;;;;;;;;;;5033930;28;20312;-80
2023/04/26 05:24:11;;;;;;;23.50;8.53;;;;;;;;;;5028459;28;20294;-85
2023/04/26 05:26:37;;;;;;;23.53;8.77;;;;;;;;;;5030514;28;20295;-79
2023/04/26 05:29:03;;;;;;;25.20;9.63;;;;;;;;;;5031489;28;20348;-82
2023/04/26 05:31:30;;;;;;;26.60;11.20;;;;;;;;;;5026792;28;20296;-82
2023/04/26 05:33:58;;;;;;;19.63;9.00;;;;;;;;;;5034352;28;20287;-81
2023/04/26 05:36:25;;;;;;;23.87;10.77;;;;;;;;;;5030160;28;20284;-85
2023/04/26 05:38:51;;;;;;;30.37;11.13;;;;;;;;;;5032577;28;20286;-81
2023/04/26 05:41:18;;;;;;;29.43;11.13;;;;;;;;;;5032478;28;20327;-84
2023/04/26 05:43:46;;;;;;;25.70;10.33;;;;;;;;;;5028273;28;20311;-82
2023/04/26 05:46:12;;;;;;;33.13;11.87;;;;;;;;;;5033250;28;20280;-82
2023/04/26 05:48:38;;;;;;;31.87;12.23;;;;;;;;;;5037383;28;21032;-81
2023/04/26 05:51:04;;;;;;;27.13;11.67;;;;;;;;;;5032868;28;20276;-80
2023/04/26 05:53:33;;;;;;;32.73;12.47;;;;;;;;;;5033330;28;20292;-81
2023/04/26 05:55:59;;;;;;;25.63;11.10;;;;;;;;;;5036674;28;20280;-79
2023/04/26 05:58:32;;;;;;;34.23;12.40;;;;;;;;;;5032694;28;20304;-79
2023/04/26 06:00:58;;;;;;;23.40;11.10;;;;;;;;;;5027608;28;20309;-79
2023/04/26 06:03:25;;;;;;;32.20;12.37;;;;;;;;;;5034318;28;20293;-81
2023/04/26 06:05:51;;;;;;;25.60;13.03;;;;;;;;;;5028141;28;20392;-83
2023/04/26 06:08:18;;;;;;;32.97;12.67;;;;;;;;;;5020173;28;20276;-81
2023/04/26 06:10:45;;;;;;;24.80;11.07;;;;;;;;;;5035858;28;20292;-82
2023/04/26 06:13:11;;;;;;;27.13;12.20;;;;;;;;;;5030441;28;20276;-80
2023/04/26 06:15:38;;;;;;;28.43;12.77;;;;;;;;;;5028457;28;20280;-83
2023/04/26 06:18:07;;;;;;;25.63;11.63;;;;;;;;;;5029302;28;20310;-81
2023/04/26 06:20:33;;;;;;;21.77;10.50;;;;;;;;;;5031186;28;20586;-81
2023/04/26 06:22:59;;;;;;;24.93;9.93;;;;;;;;;;5025908;28;20295;-84
2023/04/26 06:25:25;;;;;;;22.93;10.80;;;;;;;;;;5030735;28;20284;-82
2023/04/26 06:27:54;;;;;;;27.47;11.73;;;;;;;;;;5031631;28;20292;-83
2023/04/26 06:30:21;;;;;;;27.80;11.00;;;;;;;;;;5031978;28;20283;-82
2023/04/26 06:32:49;;;;;;;28.50;10.93;;;;;;;;;;5024562;28;20072;-80
2023/04/26 06:35:16;;;;;;;22.43;8.30;;;;;;;;;;5030987;28;20300;-81
2023/04/26 06:37:42;;;;;;;23.70;9.03;;;;;;;;;;5032816;28;20033;-82
2023/04/26 06:40:16;;;;;;;21.90;9.27;;;;;;;;;;5024824;28;20034;-82
2023/04/26 06:42:42;;;;;;;23.30;9.50;;;;;;;;;;5032324;28;20025;-84
2023/04/26 06:45:08;;;;;;;28.37;11.63;;;;;;;;;;5031243;28;20097;-82
2023/04/26 06:47:35;;;;;;;23.93;9.60;;;;;;;;;;5034178;28;20034;-84
2023/04/26 06:50:01;;;;;;;25.67;10.10;;;;;;;;;;5026633;28;20030;-79
2023/04/26 06:52:29;;;;;;;19.93;9.23;;;;;;;;;;5030580;28;20049;-81
2023/04/26 06:55:00;;;;;;;41.17;9.40;;;;;;;;;;5032642;28;20022;-82
2023/04/26 06:57:26;;;;;;;15.90;7.03;;;;;;;;;;5026258;28;20057;-80
2023/04/26 06:59:55;;;;;;;25.47;8.50;;;;;;;;;;5032423;28;20049;-80
2023/04/26 07:02:23;;;;;;;26.63;10.03;;;;;;;;;;5027454;28;20042;-82
2023/04/26 07:04:51;;;;;;;24.73;10.13;;;;;;;;;;5033021;28;20112;-81
2023/04/26 07:09:45;;;;;;;26.83;8.60;;;;;;;;;;5075900;28;20051;-79
2023/04/26 07:12:11;;;;;;;29.13;9.43;;;;;;;;;;5067203;28;20065;-79
2023/04/26 07:14:40;;;;;;;25.37;8.77;;;;;;;;;;5078241;28;20037;-79
2023/04/26 07:17:08;;;;;;;24.70;10.07;;;;;;;;;;5067239;28;20031;-79
2023/04/26 07:19:34;;;;;;;21.37;9.67;;;;;;;;;;5071566;28;20044;-79
2023/04/26 07:22:03;;;;;;;22.47;8.63;;;;;;;;;;5072151;28;20029;-80
2023/04/26 07:24:36;;;;;;;22.37;9.47;;;;;;;;;;5071683;28;20040;-80
2023/04/26 07:27:03;;;;;;;21.53;8.53;;;;;;;;;;5079611;28;20017;-79
2023/04/26 07:29:32;;;;;;;28.10;9.93;;;;;;;;;;5064769;28;20028;-81
2023/04/26 07:32:00;;;;;;;25.27;9.43;;;;;;;;;;5079843;28;20056;-80
2023/04/26 07:34:28;;;;;;;15.63;7.57;;;;;;;;;;5082256;28;20029;-79
2023/04/26 07:37:06;;;;;;;18.87;8.67;;;;;;;;;;5079942;28;20096;-79
2023/04/26 07:39:36;;;;;;;18.17;8.70;;;;;;;;;;5081334;28;20032;-77
2023/04/26 07:42:05;;;;;;;23.63;10.53;;;;;;;;;;5070665;28;20032;-78
2023/04/26 07:44:34;;;;;;;20.80;6.20;;;;;;;;;;5080768;28;20045;-79
2023/04/26 07:47:00;;;;;;;17.30;6.40;;;;;;;;;;5072007;28;20036;-78
2023/04/26 07:49:31;;;;;;;23.50;8.93;;;;;;;;;;5070774;28;20059;-81
2023/04/26 07:52:01;;;;;;;17.17;7.27;;;;;;;;;;5080142;28;20040;-78
2023/04/26 07:54:27;;;;;;;17.80;7.90;;;;;;;;;;5079242;28;20051;-79
2023/04/26 07:56:54;;;;;;;17.23;5.80;;;;;;;;;;5080238;28;20044;-78
2023/04/26 07:59:23;;;;;;;17.77;6.47;;;;;;;;;;5079565;28;20028;-78
2023/04/26 08:01:51;;;;;;;18.27;7.30;;;;;;;;;;5065202;28;20016;-80
2023/04/26 08:04:18;;;;;;;14.97;6.20;;;;;;;;;;5083992;28;20386;-77
2023/04/26 08:06:47;;;;;;;16.50;5.57;;;;;;;;;;5082389;28;20157;-79
2023/04/26 08:09:13;;;;;;;19.63;5.97;;;;;;;;;;5077494;28;20057;-80
2023/04/26 08:11:40;;;;;;;15.57;5.50;;;;;;;;;;5075544;28;20067;-77
2023/04/26 08:14:06;;;;;;;12.37;5.40;;;;;;;;;;5069445;28;20033;-78
2023/04/26 08:16:32;;;;;;;13.43;4.53;;;;;;;;;;5085455;28;20024;-80
2023/04/26 08:19:01;;;;;;;16.10;4.33;;;;;;;;;;5074730;28;20013;-77
2023/04/26 08:21:27;;;;;;;17.13;4.53;;;;;;;;;;5081807;28;20041;-78
2023/04/26 08:23:53;;;;;;;14.97;4.50;;;;;;;;;;5083956;28;20056;-80
2023/04/26 08:26:25;;;;;;;12.20;5.67;;;;;;;;;;5083961;28;20043;-79
2023/04/26 08:28:58;;;;;;;19.13;6.10;;;;;;;;;;5085595;28;20164;-79
2023/04/26 08:31:27;;;;;;;21.43;5.13;;;;;;;;;;5084054;28;20017;-79
2023/04/26 08:33:53;;;;;;;13.47;5.47;;;;;;;;;;5068755;28;20024;-78
2023/04/26 08:36:19;;;;;;;21.27;6.10;;;;;;;;;;5083667;28;20021;-79
2023/04/26 08:38:48;;;;;;;15.30;8.50;;;;;;;;;;5069688;28;20040;-77
2023/04/26 08:41:15;;;;;;;14.90;4.67;;;;;;;;;;5075756;28;20009;-78
2023/04/26 08:43:41;;;;;;;25.30;5.10;;;;;;;;;;5069781;28;20032;-78
2023/04/26 08:46:15;;;;;;;16.40;5.47;;;;;;;;;;5083967;28;20033;-80
2023/04/26 08:48:41;;;;;;;10.37;5.67;;;;;;;;;;5068431;28;20013;-78
2023/04/26 08:51:12;;;;;;;17.73;6.67;;;;;;;;;;5083396;28;20020;-77
2023/04/26 08:53:38;;;;;;;16.43;5.80;;;;;;;;;;5083930;28;20028;-79
2023/04/26 08:56:04;;;;;;;21.53;6.13;;;;;;;;;;5069624;28;20025;-80
2023/04/26 08:58:31;;;;;;;13.30;7.20;;;;;;;;;;5083069;28;20039;-78
2023/04/26 09:00:58;;;;;;;12.87;7.67;;;;;;;;;;5083016;28;20025;-78
2023/04/26 09:03:25;;;;;;;17.67;7.27;;;;;;;;;;5081033;28;20105;-77
2023/04/26 09:05:51;;;;;;;18.07;8.03;;;;;;;;;;5080488;28;20032;-79
2023/04/26 09:08:18;;;;;;;18.33;7.63;;;;;;;;;;5081470;28;20060;-78
2023/04/26 09:10:46;;;;;;;24.13;7.40;;;;;;;;;;5073779;28;20029;-77
2023/04/26 09:13:33;;;;;;;17.00;7.93;;;;;;;;;;5066438;28;20049;-79
2023/04/26 09:16:03;;;;;;;15.10;7.70;;;;;;;;;;5066348;28;20025;-78
2023/04/26 09:18:32;;;;;;;18.83;8.77;;;;;;;;;;5046491;28;20051;-77
2023/04/26 09:21:05;;;;;;;20.30;8.37;;;;;;;;;;5065927;28;20030;-77
2023/04/26 09:23:34;;;;;;;23.07;9.83;;;;;;;;;;5066565;28;20052;-79
2023/04/26 09:26:19;;;;;;;16.37;8.37;;;;;;;;;;5072231;28;20028;-78
2023/04/26 09:29:05;;;;;;;15.10;6.53;;;;;;;;;;5070790;28;20085;-77
2023/04/26 09:31:44;;;;;;;20.33;7.30;;;;;;;;;;5047755;28;20021;-76
2023/04/26 09:34:11;;;;;;;14.67;6.30;;;;;;;;;;5064126;28;20057;-80
2023/04/26 09:36:50;;;;;;;12.83;5.17;;;;;;;;;;5071924;28;20033;-78
2023/04/26 09:39:36;;;;;;;12.53;4.97;;;;;;;;;;5066171;28;20032;-78
2023/04/26 09:42:11;;;;;;;13.57;4.43;;;;;;;;;;5049820;28;20098;-76
2023/04/26 09:44:38;;;;;;;14.93;5.97;;;;;;;;;;5071552;28;20064;-79
2023/04/26 09:47:11;;;;;;;11.73;4.97;;;;;;;;;;5071673;28;20053;-77
2023/04/26 09:49:50;;;;;;;13.67;5.53;;;;;;;;;;5070170;28;20025;-77
2023/04/26 09:52:20;;;;;;;11.77;4.53;;;;;;;;;;5065774;28;20041;-79
2023/04/26 09:54:53;;;;;;;9.37;4.47;;;;;;;;;;5051922;28;20570;-78
2023/04/26 09:57:21;;;;;;;11.50;4.40;;;;;;;;;;5066328;28;20037;-78
2023/04/26 09:59:55;;;;;;;13.23;5.07;;;;;;;;;;5067792;28;20053;-77
2023/04/26 10:02:24;;;;;;;8.50;3.30;;;;;;;;;;5071119;28;20025;-76
2023/04/26 10:05:00;;;;;;;14.73;4.07;;;;;;;;;;5052449;28;20037;-78
2023/04/26 10:07:26;;;;;;;10.43;3.77;;;;;;;;;;5047085;28;20064;-79
2023/04/26 10:09:53;;;;;;;7.97;3.47;;;;;;;;;;5070761;28;20030;-77
2023/04/26 10:12:40;;;;;;;12.20;4.13;;;;;;;;;;5057724;28;20017;-79
2023/04/26 10:15:07;;;;;;;10.50;3.77;;;;;;;;;;5067295;28;20077;-79
2023/04/26 10:17:33;;;;;;;14.50;4.73;;;;;;;;;;5071426;28;20060;-77
2023/04/26 10:20:00;;;;;;;13.00;3.77;;;;;;;;;;5042895;28;20037;-79
2023/04/26 10:22:32;;;;;;;9.50;3.03;;;;;;;;;;5069221;28;20037;-79
2023/04/26 10:24:58;;;;;;;12.27;3.87;;;;;;;;;;5048958;28;20043;-79
2023/04/26 10:27:43;;;;;;;11.40;3.00;;;;;;;;;;5054809;28;20039;-79
2023/04/26 10:30:11;;;;;;;5.80;2.70;;;;;;;;;;5070237;28;20021;-78
2023/04/26 10:32:52;;;;;;;6.57;2.10;;;;;;;;;;5046804;28;20014;-78
2023/04/26 10:35:19;;;;;;;6.17;2.20;;;;;;;;;;5067074;28;20036;-77
2023/04/26 10:38:00;;;;;;;5.60;2.13;;;;;;;;;;5059424;28;20032;-80
2023/04/26 10:40:31;;;;;;;5.37;2.03;;;;;;;;;;5046673;28;20037;-79
2023/04/26 10:43:09;;;;;;;7.37;2.30;;;;;;;;;;5045802;28;20188;-80
2023/04/26 10:45:36;;;;;;;8.60;3.10;;;;;;;;;;5064567;28;20029;-80
2023/04/26 10:48:28;;;;;;;7.37;3.60;;;;;;;;;;5067271;28;20017;-76
2023/04/26 10:51:12;;;;;;;9.88;3.17;;;;;;;;;;5060500;28;20035;-80
2023/04/26 10:53:45;;;;;;;15.27;2.90;;;;;;;;;;5068445;28;20032;-77
2023/04/26 10:56:11;;;;;;;8.02;2.20;;;;;;;;;;5065171;28;20052;-77
2023/04/26 10:58:40;;;;;;;5.07;2.30;;;;;;;;;;5069153;28;20078;-77
2023/04/26 11:01:12;;;;;;;8.63;3.10;;;;;;;;;;5046324;28;20053;-80
2023/04/26 11:03:40;;;;;;;9.27;3.22;;;;;;;;;;5057481;28;20034;-80
2023/04/26 11:06:08;;;;;;;7.00;2.10;;;;;;;;;;5054168;28;20032;-77
2023/04/26 11:08:35;;;;;;;6.77;2.30;;;;;;;;;;5046139;28;20017;-77
2023/04/26 11:11:01;;;;;;;6.77;2.53;;;;;;;;;;5044885;28;20033;-79
2023/04/26 11:13:35;;;;;;;5.17;2.17;;;;;;;;;;5063792;28;20161;-77
2023/04/26 11:16:02;;;;;;;7.83;2.90;;;;;;;;;;5044165;28;20024;-77
2023/04/26 11:18:29;;;;;;;7.53;2.67;;;;;;;;;;5051381;28;20107;-78
2023/04/26 11:20:56;;;;;;;9.00;3.07;;;;;;;;;;5045724;28;20024;-80
2023/04/26 11:23:24;;;;;;;7.87;2.80;;;;;;;;;;5068145;28;20096;-80
2023/04/26 11:25:51;;;;;;;10.97;3.23;;;;;;;;;;5053602;28;20068;-81
2023/04/26 11:28:18;;;;;;;13.83;3.03;;;;;;;;;;5070915;28;20029;-79
2023/04/26 11:30:44;;;;;;;9.70;2.63;;;;;;;;;;5062171;28;20041;-78
2023/04/26 11:33:18;;;;;;;14.27;3.43;;;;;;;;;;5046665;28;20037;-78
2023/04/26 11:36:03;;;;;;;15.27;3.73;;;;;;;;;;5063114;28;20032;-79
2023/04/26 11:38:47;;;;;;;17.10;3.90;;;;;;;;;;5051694;28;20021;-78
2023/04/26 11:41:13;;;;;;;12.17;3.47;;;;;;;;;;5045432;28;20052;-77
2023/04/26 11:43:39;;;;;;;8.87;4.67;;;;;;;;;;5046884;28;20041;-77
2023/04/26 11:46:06;;;;;;;8.47;3.37;;;;;;;;;;5065203;28;20029;-79
2023/04/26 11:48:33;;;;;;;8.07;3.70;;;;;;;;;;5070170;28;20031;-77
2023/04/26 11:50:59;;;;;;;14.57;4.77;;;;;;;;;;5053689;28;20023;-77
2023/04/26 11:53:36;;;;;;;11.17;3.60;;;;;;;;;;5070949;28;20009;-78
2023/04/26 11:56:21;;;;;;;11.13;3.70;;;;;;;;;;5063918;28;20021;-79
2023/04/26 11:58:48;;;;;;;7.37;3.83;;;;;;;;;;5047033;28;20043;-80
2023/04/26 12:01:27;;;;;;;11.37;3.97;;;;;;;;;;5067083;28;20013;-77
2023/04/26 12:03:55;;;;;;;9.07;3.83;;;;;;;;;;5069888;28;20037;-77
2023/04/26 12:06:25;;;;;;;11.87;3.20;;;;;;;;;;5062995;28;20034;-78
2023/04/26 12:08:52;;;;;;;11.13;2.97;;;;;;;;;;5068271;28;20064;-79
2023/04/26 12:11:20;;;;;;;9.87;3.20;;;;;;;;;;5046957;28;20049;-78
2023/04/26 12:13:46;;;;;;;8.80;3.40;;;;;;;;;;5051535;28;20020;-77
2023/04/26 12:16:13;;;;;;;6.63;3.57;;;;;;;;;;5066340;28;20064;-79
2023/04/26 12:18:39;;;;;;;13.00;3.20;;;;;;;;;;5047008;28;20014;-80
2023/04/26 12:21:08;;;;;;;10.97;2.60;;;;;;;;;;5054879;28;20067;-79
2023/04/26 12:23:38;;;;;;;8.33;3.13;;;;;;;;;;5066673;28;20045;-78
2023/04/26 12:26:14;;;;;;;10.20;3.47;;;;;;;;;;5048630;28;20075;-79
2023/04/26 12:28:40;;;;;;;8.63;3.37;;;;;;;;;;5069095;28;20030;-80
2023/04/26 12:31:14;;;;;;;10.30;3.60;;;;;;;;;;5045444;28;20035;-79
2023/04/26 12:33:42;;;;;;;10.10;3.23;;;;;;;;;;5053199;28;20025;-79
2023/04/26 12:36:10;;;;;;;8.17;3.13;;;;;;;;;;5068724;28;20013;-76
2023/04/26 12:38:36;;;;;;;13.80;2.97;;;;;;;;;;5051561;28;20102;-78
2023/04/26 12:41:02;;;;;;;9.10;2.83;;;;;;;;;;5067077;28;20034;-82
2023/04/26 12:43:33;;;;;;;9.30;3.00;;;;;;;;;;5052668;28;20025;-78
2023/04/26 12:46:00;;;;;;;7.93;2.73;;;;;;;;;;5046144;28;20025;-78
2023/04/26 12:48:28;;;;;;;9.67;2.97;;;;;;;;;;5049909;28;20029;-80
2023/04/26 12:50:54;;;;;;;11.00;2.77;;;;;;;;;;5049850;28;20037;-79
2023/04/26 12:53:20;;;;;;;11.67;2.70;;;;;;;;;;5071227;28;20017;-78
2023/04/26 12:55:47;;;;;;;8.73;2.97;;;;;;;;;;5050330;28;20044;-80
2023/04/26 12:58:13;;;;;;;6.97;2.47;;;;;;;;;;5065527;28;20052;-79
2023/04/26 13:00:41;;;;;;;9.30;2.73;;;;;;;;;;5056806;28;20041;-80
2023/04/26 13:03:13;;;;;;;7.47;3.93;;;;;;;;;;5066573;28;20029;-79
2023/04/26 13:05:39;;;;;;;12.80;5.07;;;;;;;;;;5054758;28;20029;-81
2023/04/26 13:08:05;;;;;;;11.43;4.30;;;;;;;;;;5047075;28;20029;-78
2023/04/26 13:10:31;;;;;;;9.50;4.17;;;;;;;;;;5069420;28;20096;-79
2023/04/26 13:12:58;;;;;;;12.50;4.60;;;;;;;;;;5055887;28;20021;-82
2023/04/26 13:15:25;;;;;;;11.23;3.73;;;;;;;;;;5070211;28;20060;-82
2023/04/26 13:17:54;;;;;;;13.50;4.30;;;;;;;;;;5057988;28;20040;-80
2023/04/26 13:20:20;;;;;;;11.83;4.40;;;;;;;;;;5054617;28;20097;-77
2023/04/26 13:22:50;;;;;;;12.17;3.50;;;;;;;;;;5067273;28;20033;-77
2023/04/26 13:25:18;;;;;;;9.97;3.90;;;;;;;;;;5059802;28;20033;-79
2023/04/26 13:27:45;;;;;;;12.50;4.47;;;;;;;;;;5070894;28;20018;-78
2023/04/26 13:30:13;;;;;;;12.37;3.63;;;;;;;;;;5058218;28;20036;-78
2023/04/26 13:32:42;;;;;;;11.40;3.80;;;;;;;;;;5051034;28;20025;-79
2023/04/26 13:35:16;;;;;;;9.13;3.50;;;;;;;;;;5059190;28;20009;-78
2023/04/26 13:37:42;;;;;;;8.97;3.70;;;;;;;;;;5066605;28;20026;-78
2023/04/26 13:40:10;;;;;;;8.70;3.13;;;;;;;;;;5057885;28;20048;-78
2023/04/26 13:42:36;;;;;;;9.13;3.53;;;;;;;;;;5056242;28;20033;-77
2023/04/26 13:45:05;;;;;;;8.90;3.00;;;;;;;;;;5065992;28;20093;-79
2023/04/26 13:47:31;;;;;;;8.60;3.87;;;;;;;;;;5066325;28;20051;-78
2023/04/26 13:49:57;;;;;;;9.40;2.97;;;;;;;;;;5055638;28;20059;-81
2023/04/26 13:52:23;;;;;;;11.80;4.30;;;;;;;;;;5066150;28;20089;-77
2023/04/26 13:54:51;;;;;;;7.13;3.03;;;;;;;;;;5066908;28;20017;-79
2023/04/26 13:57:18;;;;;;;8.53;4.07;;;;;;;;;;5056832;28;20005;-78
2023/04/26 13:59:44;;;;;;;14.23;4.07;;;;;;;;;;5048852;28;20053;-80
2023/04/26 14:02:13;;;;;;;8.13;3.90;;;;;;;;;;5068388;28;20059;-80
2023/04/26 14:04:40;;;;;;;6.87;3.77;;;;;;;;;;5069150;28;20113;-80
2023/04/26 14:07:06;;;;;;;7.27;3.30;;;;;;;;;;5052281;28;20101;-79
2023/04/26 14:09:32;;;;;;;14.07;3.47;;;;;;;;;;5048483;28;20185;-81
2023/04/26 14:11:59;;;;;;;8.07;3.50;;;;;;;;;;5047271;28;20043;-77
2023/04/26 14:14:25;;;;;;;8.27;3.50;;;;;;;;;;5048079;28;20044;-78
2023/04/26 14:16:51;;;;;;;12.20;3.93;;;;;;;;;;5056829;28;20096;-81
2023/04/26 14:19:17;;;;;;;10.10;3.30;;;;;;;;;;5047918;28;20020;-78
2023/04/26 14:21:43;;;;;;;9.00;3.73;;;;;;;;;;5065569;28;20021;-78
2023/04/26 14:24:10;;;;;;;11.93;3.10;;;;;;;;;;5069511;28;20048;-80
2023/04/26 14:26:36;;;;;;;8.13;3.37;;;;;;;;;;5054434;28;20027;-80
2023/04/26 14:29:04;;;;;;;12.37;3.23;;;;;;;;;;5053848;28;20029;-79
2023/04/26 14:31:31;;;;;;;7.37;2.80;;;;;;;;;;5065716;28;20124;-80
2023/04/26 14:33:57;;;;;;;12.63;4.60;;;;;;;;;;5059749;28;20088;-78
2023/04/26 14:36:23;;;;;;;10.87;3.20;;;;;;;;;;5065617;28;20052;-79
2023/04/26 14:38:49;;;;;;;10.43;3.03;;;;;;;;;;5055222;28;20052;-80